Time;durP1;ratioP1;P1;durP2;ratioP2;P2;SDS_P1;SDS_P2;PMS_P1;PMS_P2;Temp;Humidity;BMP_temperature;BMP_pressure;BME280_temperature;BME280_humidity;BME280_pressure;Samples;Min_cycle;Max_cycle;Signal;HPM_P1;HPM_P2
2022/11/07 00:00:06;;;;;;;5.60;3.50;;;;;;;2.99;68.96;100570.02;24556;1317;3028844;-63
2022/11/07 00:02:40;;;;;;;5.60;3.80;;;;;;;2.97;68.94;100568.67;24598;1319;3052573;-63
2022/11/07 00:05:09;;;;;;;6.90;3.40;;;;;;;2.91;68.92;100565.98;24582;1324;3029023;-63
2022/11/07 00:07:42;;;;;;;4.40;3.10;;;;;;;2.84;68.93;100563.62;24533;1334;3057642;-62
2022/11/07 00:10:11;;;;;;;5.60;3.20;;;;;;;2.88;69.03;100566.02;24598;1321;3029192;-61
2022/11/07 00:13:05;;;;;;;6.10;3.60;;;;;;;2.86;68.98;100561.88;24554;1327;3050034;-63
2022/11/07 00:15:34;;;;;;;4.20;2.80;;;;;;;2.85;69.16;100566.20;24553;1321;3028871;-61
2022/11/07 00:18:04;;;;;;;5.60;3.20;;;;;;;2.90;69.17;100564.41;24510;1326;3069298;-61
2022/11/07 00:20:33;;;;;;;4.70;3.50;;;;;;;3.00;69.00;100559.27;24649;1337;3026226;-63
2022/11/07 00:23:07;;;;;;;5.00;2.90;;;;;;;3.01;69.03;100557.90;24572;1331;3056429;-63
2022/11/07 00:25:37;;;;;;;4.30;3.00;;;;;;;2.93;69.00;100557.29;24572;1331;3027408;-63
2022/11/07 00:28:06;;;;;;;6.40;4.00;;;;;;;2.91;68.88;100561.47;24552;1327;3028164;-63
2022/11/07 00:30:39;;;;;;;5.50;3.30;;;;;;;2.89;69.10;100560.11;24568;1325;3056623;-64
2022/11/07 00:33:09;;;;;;;4.70;3.20;;;;;;;2.94;68.74;100562.13;24568;1329;3028103;-63
2022/11/07 00:35:41;;;;;;;5.20;3.40;;;;;;;2.94;69.21;100557.47;24595;1321;3028629;-62
2022/11/07 00:38:12;;;;;;;5.40;2.50;;;;;;;2.89;69.37;100561.14;24605;1334;3057660;-64
2022/11/07 00:40:41;;;;;;;6.00;3.50;;;;;;;2.93;69.09;100564.05;24578;1324;3027363;-64
2022/11/07 00:43:10;;;;;;;4.80;3.10;;;;;;;3.00;68.89;100561.36;24583;1321;3026447;-64
2022/11/07 00:45:39;;;;;;;5.00;3.10;;;;;;;2.99;68.66;100558.08;24571;1334;3056621;-63
2022/11/07 00:48:08;;;;;;;6.70;3.40;;;;;;;2.94;68.22;100555.89;24556;1320;3026578;-62
2022/11/07 00:50:37;;;;;;;5.40;3.40;;;;;;;2.90;68.70;100553.70;24613;1328;3051432;-64
2022/11/07 00:53:06;;;;;;;4.60;2.90;;;;;;;2.92;68.63;100555.92;24545;1321;3028994;-61
2022/11/07 00:55:37;;;;;;;5.80;2.90;;;;;;;2.96;68.47;100551.89;24613;1327;3070523;-61
2022/11/07 00:58:15;;;;;;;7.70;3.50;;;;;;;2.97;68.61;100549.98;24568;1328;3050335;-63
2022/11/07 01:00:44;;;;;;;6.20;3.10;;;;;;;3.01;68.47;100544.56;24529;1334;3029196;-61
2022/11/07 01:06:02;;;;;;;5.20;3.10;;;;;;;3.04;68.55;100544.19;24549;1328;3050622;-62
2022/11/07 01:08:32;;;;;;;6.00;3.50;;;;;;;3.04;68.41;100541.41;24631;1324;3025447;-63
2022/11/07 01:11:04;;;;;;;6.30;3.10;;;;;;;3.08;68.38;100535.64;24532;1324;3029988;-63
2022/11/07 01:13:34;;;;;;;6.10;3.60;;;;;;;3.06;68.51;100535.48;24579;1328;3028003;-63
2022/11/07 01:16:04;;;;;;;6.20;3.60;;;;;;;3.02;68.53;100536.23;24568;1324;3025732;-63
2022/11/07 01:18:33;;;;;;;3.80;2.60;;;;;;;3.04;68.63;100530.17;24582;1328;3027168;-62
2022/11/07 01:21:04;;;;;;;4.80;3.00;;;;;;;2.97;68.46;100525.74;24556;1330;3024928;-61
2022/11/07 01:23:34;;;;;;;5.40;3.30;;;;;;;2.95;68.72;100522.83;24619;1320;3051053;-63
2022/11/07 01:26:05;;;;;;;5.00;3.00;;;;;;;2.86;68.95;100516.53;25480;1319;3027953;-64
2022/11/07 01:28:34;;;;;;;3.60;2.90;;;;;;;2.82;68.84;100513.46;25496;1330;3026502;-62
2022/11/07 01:31:07;;;;;;;6.60;3.00;;;;;;;2.80;69.08;100513.83;25488;1324;3026561;-63
2022/11/07 01:33:36;;;;;;;6.60;3.40;;;;;;;2.76;69.35;100517.00;25493;1327;3026609;-62
2022/11/07 01:36:08;;;;;;;4.20;2.90;;;;;;;2.78;69.21;100514.73;25499;1328;3026677;-63
2022/11/07 01:38:40;;;;;;;5.20;2.70;;;;;;;2.80;69.16;100509.69;25492;1328;3026858;-63
2022/11/07 01:41:20;;;;;;;6.70;3.00;;;;;;;2.78;69.21;100508.49;25504;1328;3027062;-63
2022/11/07 01:43:58;;;;;;;4.30;2.90;;;;;;;2.73;69.10;100503.36;25478;1328;3052124;-63
2022/11/07 01:46:40;;;;;;;4.30;3.00;;;;;;;2.74;69.20;100492.80;25501;1327;3052068;-64
2022/11/07 01:49:19;;;;;;;3.80;2.70;;;;;;;2.72;69.44;100493.87;25487;1327;3049142;-63
2022/11/07 01:52:18;;;;;;;6.50;3.10;;;;;;;2.69;69.43;100493.02;25483;1319;3068165;-63
2022/11/07 01:54:56;;;;;;;4.80;2.90;;;;;;;2.78;69.40;100489.63;25481;1320;3050696;-63
2022/11/07 01:57:50;;;;;;;6.70;3.40;;;;;;;2.77;69.47;100488.42;25489;1327;3057143;-61
2022/11/07 02:00:20;;;;;;;8.00;3.60;;;;;;;2.74;69.30;100487.27;25471;1328;3051587;-62
2022/11/07 02:03:10;;;;;;;4.50;3.00;;;;;;;2.72;69.62;100485.05;25493;1327;3026273;-63
2022/11/07 02:05:43;;;;;;;5.70;3.40;;;;;;;2.79;69.30;100483.93;25471;1328;3053279;-64
2022/11/07 02:08:12;;;;;;;5.40;3.20;;;;;;;2.83;69.15;100485.75;25479;1335;3026439;-62
2022/11/07 02:10:42;;;;;;;7.30;3.30;;;;;;;2.89;69.39;100481.20;25471;1327;3027458;-62
2022/11/07 02:13:17;;;;;;;6.80;3.50;;;;;;;2.91;69.40;100479.77;25460;1327;3027871;-62
2022/11/07 02:15:48;;;;;;;6.10;3.40;;;;;;;2.90;69.54;100483.45;25499;1327;3049165;-61
2022/11/07 02:18:18;;;;;;;6.70;3.50;;;;;;;2.94;69.37;100481.83;25474;1328;3027954;-62
2022/11/07 02:20:47;;;;;;;5.10;3.50;;;;;;;2.98;69.39;100484.36;25466;1323;3026487;-66
2022/11/07 02:23:25;;;;;;;7.10;3.70;;;;;;;3.00;69.07;100484.17;25479;1320;3050396;-63
2022/11/07 02:25:54;;;;;;;5.90;3.90;;;;;;;2.95;69.25;100485.80;25482;1321;3057633;-63
2022/11/07 02:28:24;;;;;;;6.40;3.80;;;;;;;2.89;69.19;100481.02;25482;1328;3027398;-62
2022/11/07 02:30:52;;;;;;;6.00;3.30;;;;;;;2.95;69.27;100485.61;25458;1335;3026369;-61
2022/11/07 02:33:22;;;;;;;6.50;4.10;;;;;;;2.88;69.39;100490.90;25476;1328;3056118;-63
2022/11/07 02:35:51;;;;;;;6.20;3.90;;;;;;;2.90;69.29;100487.95;25506;1326;3026831;-62
2022/11/07 02:38:21;;;;;;;6.30;3.80;;;;;;;2.91;68.84;100490.86;25492;1327;3049129;-63
2022/11/07 02:40:53;;;;;;;7.10;3.40;;;;;;;2.90;68.83;100488.27;25485;1328;3025707;-63
2022/11/07 02:43:24;;;;;;;4.40;3.20;;;;;;;2.87;68.72;100486.77;25462;1324;3026379;-65
2022/11/07 02:45:53;;;;;;;5.40;3.20;;;;;;;2.88;68.83;100487.09;25500;1326;3027599;-62
2022/11/07 02:48:26;;;;;;;6.20;3.70;;;;;;;2.76;68.81;100476.67;25482;1328;3026072;-61
2022/11/07 02:50:56;;;;;;;7.00;3.70;;;;;;;2.78;69.12;100476.84;25468;1328;3050725;-63
2022/11/07 02:53:25;;;;;;;5.60;3.00;;;;;;;2.72;69.05;100476.39;25496;1318;3026669;-64
2022/11/07 02:55:54;;;;;;;5.50;3.20;;;;;;;2.69;69.22;100475.90;25480;1327;3026591;-61
2022/11/07 02:58:23;;;;;;;7.60;2.70;;;;;;;2.68;69.52;100476.95;25500;1324;3026521;-60
2022/11/07 03:00:52;;;;;;;6.60;2.70;;;;;;;2.71;68.82;100478.99;25487;1327;3053572;-63
2022/11/07 03:03:21;;;;;;;7.20;3.00;;;;;;;2.74;68.90;100470.14;25481;1327;3026576;-63
2022/11/07 03:05:50;;;;;;;3.70;2.50;;;;;;;2.69;69.12;100471.75;25478;1327;3051267;-61
2022/11/07 03:08:20;;;;;;;4.60;2.70;;;;;;;2.66;69.11;100472.64;25491;1332;3027154;-63
2022/11/07 03:10:50;;;;;;;4.40;2.40;;;;;;;2.59;69.05;100467.20;25486;1324;3026282;-62
2022/11/07 03:13:19;;;;;;;6.40;2.90;;;;;;;2.59;69.58;100465.65;25522;1316;3025102;-65
2022/11/07 03:15:48;;;;;;;3.90;2.70;;;;;;;2.60;69.89;100470.13;25518;1316;3027548;-62
2022/11/07 03:18:21;;;;;;;4.80;2.80;;;;;;;2.58;69.97;100471.36;25494;1317;3051070;-63
2022/11/07 03:20:50;;;;;;;3.60;2.40;;;;;;;2.60;69.94;100469.27;25524;1316;3025499;-65
2022/11/07 03:23:19;;;;;;;7.60;2.90;;;;;;;2.63;69.92;100468.36;24795;1320;4141230;-63
2022/11/07 03:25:49;;;;;;;4.40;2.70;;;;;;;2.60;69.85;100472.19;25511;1311;3050811;-63
2022/11/07 03:28:18;;;;;;;3.70;2.50;;;;;;;2.57;70.18;100463.09;25526;1317;3026114;-61
2022/11/07 03:30:47;;;;;;;4.00;2.60;;;;;;;2.61;69.94;100461.82;25518;1311;3052036;-62
2022/11/07 03:33:15;;;;;;;4.70;2.60;;;;;;;2.63;70.01;100464.05;25507;1320;3026251;-63
2022/11/07 03:35:45;;;;;;;4.50;3.10;;;;;;;2.72;69.68;100466.17;25538;1320;3052723;-62
2022/11/07 03:38:16;;;;;;;5.40;2.90;;;;;;;2.62;70.00;100463.19;25508;1326;3027936;-65
2022/11/07 03:40:45;;;;;;;4.50;2.50;;;;;;;2.55;69.99;100458.95;25523;1320;3026039;-62
2022/11/07 03:43:14;;;;;;;5.70;3.00;;;;;;;2.65;70.05;100456.92;25533;1318;3027410;-64
2022/11/07 03:45:44;;;;;;;3.70;2.70;;;;;;;2.64;70.26;100456.25;25520;1321;3053542;-62
2022/11/07 03:48:13;;;;;;;6.20;3.20;;;;;;;2.72;70.15;100455.13;25512;1321;3028091;-62
2022/11/07 03:50:43;;;;;;;5.90;3.20;;;;;;;2.72;70.02;100452.00;25527;1320;3051959;-62
2022/11/07 03:53:12;;;;;;;3.80;2.50;;;;;;;2.69;69.83;100456.00;25522;1320;3026890;-63
2022/11/07 03:55:45;;;;;;;5.40;2.80;;;;;;;2.65;70.27;100447.58;25500;1320;3027844;-62
2022/11/07 03:58:14;;;;;;;3.70;2.40;;;;;;;2.66;70.34;100449.30;25534;1312;3025863;-62
2022/11/07 04:00:43;;;;;;;5.30;3.10;;;;;;;2.66;70.39;100447.21;25512;1323;3027421;-64
2022/11/07 04:03:12;;;;;;;4.30;2.80;;;;;;;2.64;70.56;100447.06;25506;1320;3050070;-62
2022/11/07 04:05:41;;;;;;;4.30;2.80;;;;;;;2.64;70.48;100444.84;25520;1320;3026653;-63
2022/11/07 04:08:11;;;;;;;6.00;2.90;;;;;;;2.72;70.43;100441.77;25530;1318;3052629;-63
2022/11/07 04:10:40;;;;;;;4.00;2.50;;;;;;;2.68;70.43;100440.63;25515;1319;3025876;-63
2022/11/07 04:18:38;;;;;;;5.00;3.40;;;;;;;2.76;70.52;100443.98;25506;1326;3068268;-64
2022/11/07 04:21:07;;;;;;;7.20;3.90;;;;;;;2.78;69.99;100442.73;25525;1319;3026353;-63
2022/11/07 04:23:36;;;;;;;8.00;3.60;;;;;;;2.71;70.30;100440.42;25519;1320;3026115;-65
2022/11/07 04:28:53;;;;;;;4.90;3.10;;;;;;;2.70;70.60;100439.39;25530;1320;3050832;-63
2022/11/07 04:31:22;;;;;;;5.70;3.10;;;;;;;2.61;70.68;100438.81;25527;1311;3025666;-63
2022/11/07 04:33:51;;;;;;;5.10;3.10;;;;;;;2.52;70.90;100435.46;25518;1325;3067935;-65
2022/11/07 04:36:20;;;;;;;4.40;2.80;;;;;;;2.62;70.95;100437.92;25520;1320;3026584;-62
2022/11/07 04:38:49;;;;;;;5.90;3.00;;;;;;;2.59;71.05;100433.64;25520;1313;3047046;-63
2022/11/07 04:41:19;;;;;;;4.00;2.80;;;;;;;2.68;70.77;100430.60;25514;1320;3026445;-64
2022/11/07 04:43:49;;;;;;;5.20;3.60;;;;;;;2.62;70.73;100434.29;25531;1318;3052284;-63
2022/11/07 04:46:58;;;;;;;6.00;4.40;;;;;;;2.75;70.62;100441.73;30825;1339;3013174;-63
2022/11/07 04:49:27;;;;;;;6.30;4.10;;;;;;;2.79;70.74;100438.94;24407;1336;3028527;-63
2022/11/07 04:51:56;;;;;;;6.00;3.90;;;;;;;2.83;70.53;100440.61;24459;1334;3028710;-65
2022/11/07 04:54:25;;;;;;;7.50;4.00;;;;;;;2.77;70.60;100445.35;24492;1344;3050517;-62
2022/11/07 04:56:54;;;;;;;5.80;3.40;;;;;;;2.75;70.83;100446.08;24424;1331;3028579;-61
2022/11/07 04:59:23;;;;;;;5.90;3.80;;;;;;;2.76;70.25;100449.34;23769;1336;4281541;-62
2022/11/07 05:01:53;;;;;;;4.50;3.10;;;;;;;2.77;70.17;100451.92;24438;1342;3051944;-64
2022/11/07 05:04:22;;;;;;;5.20;3.60;;;;;;;2.74;70.28;100448.52;24478;1339;3028903;-64
2022/11/07 05:06:51;;;;;;;7.10;3.50;;;;;;;2.73;70.25;100449.39;24476;1332;3053293;-61
2022/11/07 05:09:20;;;;;;;6.50;3.30;;;;;;;2.74;70.54;100449.38;24459;1338;3026639;-63
2022/11/07 05:11:49;;;;;;;5.20;3.20;;;;;;;2.76;70.55;100449.18;24495;1332;3057390;-64
2022/11/07 05:14:21;;;;;;;6.30;4.20;;;;;;;2.77;70.26;100450.55;24425;1334;3028237;-63
2022/11/07 05:16:51;;;;;;;5.30;3.30;;;;;;;2.81;70.37;100455.87;24471;1341;3029479;-64
2022/11/07 05:19:20;;;;;;;5.50;3.20;;;;;;;2.87;69.98;100459.59;24444;1339;3026855;-65
2022/11/07 05:23:11;;;;;;;4.90;2.80;;;;;;;2.80;69.99;100461.94;24497;1326;3052975;-62
2022/11/07 05:24:41;;;;;;;5.80;3.10;;;;;;;2.83;70.07;100465.68;24462;1334;3054922;-64
2022/11/07 05:27:17;;;;;;;4.30;3.00;;;;;;;2.77;70.30;100467.67;24433;1327;3027986;-63
2022/11/07 05:29:46;;;;;;;8.30;3.30;;;;;;;2.82;70.42;100466.41;24448;1332;3052517;-63
2022/11/07 05:32:16;;;;;;;5.70;4.00;;;;;;;2.83;70.41;100463.97;24462;1339;3028525;-63
2022/11/07 05:34:45;;;;;;;7.10;3.70;;;;;;;2.85;70.13;100460.48;24459;1326;3028919;-61
2022/11/07 05:37:14;;;;;;;5.00;3.30;;;;;;;2.88;70.41;100461.30;24450;1338;3051341;-63
2022/11/07 05:39:43;;;;;;;5.80;3.90;;;;;;;2.93;70.40;100461.92;24473;1334;3026259;-63
2022/11/07 05:47:10;;;;;;;5.70;3.50;;;;;;;2.92;70.11;100463.33;24446;1333;3049608;-63
2022/11/07 05:49:40;;;;;;;6.70;4.10;;;;;;;2.89;70.26;100463.89;24458;1338;3027874;-64
2022/11/07 05:52:09;;;;;;;6.10;3.60;;;;;;;2.91;70.05;100468.19;24475;1337;3027322;-61
2022/11/07 05:54:38;;;;;;;4.50;2.90;;;;;;;2.93;70.07;100469.73;24446;1338;3026795;-63
2022/11/07 05:57:07;;;;;;;7.50;3.30;;;;;;;2.96;69.96;100475.57;24503;1339;3057550;-64
2022/11/07 05:59:36;;;;;;;5.10;3.40;;;;;;;3.01;69.74;100478.27;24466;1326;3029295;-64
2022/11/07 06:02:05;;;;;;;5.80;3.70;;;;;;;3.00;69.69;100476.21;24459;1332;3050990;-62
2022/11/07 06:04:34;;;;;;;4.80;3.40;;;;;;;2.99;69.67;100473.09;24478;1338;3028172;-63
2022/11/07 06:07:03;;;;;;;5.20;3.20;;;;;;;3.03;69.66;100476.34;24459;1326;3070410;-63
2022/11/07 06:09:32;;;;;;;5.00;3.50;;;;;;;3.06;69.57;100475.41;24462;1332;3027763;-62
2022/11/07 06:12:02;;;;;;;6.80;4.00;;;;;;;2.99;70.04;100484.34;24507;1333;3049204;-62
2022/11/07 06:14:31;;;;;;;7.30;3.40;;;;;;;2.96;70.10;100481.61;24492;1336;3027317;-64
2022/11/07 06:17:00;;;;;;;4.10;3.10;;;;;;;3.08;69.78;100479.21;24461;1326;3027330;-62
2022/11/07 06:19:29;;;;;;;6.30;3.20;;;;;;;3.08;69.69;100471.60;24466;1339;3050060;-65
2022/11/07 06:21:59;;;;;;;4.10;3.00;;;;;;;3.08;69.76;100469.01;24452;1335;3028123;-63
2022/11/07 06:24:28;;;;;;;6.40;3.70;;;;;;;3.05;69.95;100462.63;24431;1332;3053217;-62
2022/11/07 06:26:57;;;;;;;5.70;3.40;;;;;;;3.06;70.05;100457.27;24496;1330;3029578;-64
2022/11/07 06:29:26;;;;;;;6.40;4.00;;;;;;;3.06;69.89;100457.95;24445;1333;3051822;-65
2022/11/07 06:31:55;;;;;;;5.10;3.80;;;;;;;3.03;69.99;100455.39;24493;1331;3029392;-62
2022/11/07 06:34:24;;;;;;;8.30;4.40;;;;;;;3.01;70.05;100453.16;24441;1339;3052735;-64
2022/11/07 06:36:54;;;;;;;8.60;4.70;;;;;;;3.02;70.02;100452.45;24480;1331;3029728;-62
2022/11/07 06:39:23;;;;;;;7.80;4.80;;;;;;;3.13;70.03;100450.73;24458;1333;3049880;-62
2022/11/07 06:41:52;;;;;;;6.00;3.90;;;;;;;3.19;69.78;100447.90;24478;1334;3025802;-63
2022/11/07 06:44:21;;;;;;;7.10;4.30;;;;;;;3.27;69.58;100447.98;24458;1333;3056668;-64
2022/11/07 06:46:51;;;;;;;5.60;3.70;;;;;;;3.33;69.26;100447.35;24412;1326;3028029;-64
2022/11/07 06:49:20;;;;;;;4.40;2.90;;;;;;;3.36;69.05;100447.81;24494;1325;3027282;-63
2022/11/07 06:51:49;;;;;;;7.80;3.80;;;;;;;3.40;69.12;100442.91;24443;1339;3057871;-64
2022/11/07 06:54:17;;;;;;;6.40;4.00;;;;;;;3.46;68.88;100439.34;24502;1326;3027891;-62
2022/11/07 06:56:47;;;;;;;4.40;3.40;;;;;;;3.42;68.98;100436.81;24416;1331;3049709;-63
2022/11/07 06:59:16;;;;;;;5.90;3.10;;;;;;;3.45;68.83;100435.89;24472;1339;3027642;-63
2022/11/07 07:01:45;;;;;;;4.90;3.30;;;;;;;3.41;68.65;100438.22;24456;1325;3028039;-63
2022/11/07 07:04:14;;;;;;;3.70;3.00;;;;;;;3.48;68.78;100437.23;24443;1339;3049213;-65
2022/11/07 07:06:44;;;;;;;4.40;3.20;;;;;;;3.43;68.60;100441.48;24487;1334;3028611;-64
2022/11/07 07:09:13;;;;;;;5.00;3.10;;;;;;;3.46;68.67;100441.09;24477;1333;3028103;-63
2022/11/07 07:11:43;;;;;;;4.70;3.00;;;;;;;3.59;68.19;100440.70;24429;1324;3026804;-63
2022/11/07 07:14:13;;;;;;;4.00;2.80;;;;;;;3.65;67.77;100441.13;24466;1331;3056559;-63
2022/11/07 07:16:42;;;;;;;5.80;3.40;;;;;;;3.65;67.57;100446.33;24480;1320;3029502;-63
2022/11/07 07:19:11;;;;;;;4.40;3.20;;;;;;;3.63;67.57;100445.67;24446;1332;3050014;-64
2022/11/07 07:21:40;;;;;;;3.90;2.50;;;;;;;3.62;67.38;100444.81;24444;1333;3026543;-64
2022/11/07 07:24:09;;;;;;;4.30;2.80;;;;;;;3.65;67.14;100439.73;24534;1326;3029466;-61
2022/11/07 07:26:40;;;;;;;3.30;2.30;;;;;;;3.69;66.94;100436.89;24497;1340;3051932;-62
2022/11/07 07:29:09;;;;;;;3.80;2.60;;;;;;;3.68;66.94;100435.70;24458;1332;3025833;-63
2022/11/07 07:31:38;;;;;;;2.70;2.30;;;;;;;3.74;66.98;100442.71;24455;1326;3070430;-62
2022/11/07 07:34:08;;;;;;;3.20;2.20;;;;;;;3.81;66.79;100442.75;24515;1318;3029095;-62
2022/11/07 07:36:37;;;;;;;3.20;2.30;;;;;;;3.83;66.41;100444.64;24506;1333;3049388;-64
2022/11/07 07:39:06;;;;;;;4.10;2.30;;;;;;;3.86;66.36;100442.34;24459;1326;3028376;-63
2022/11/07 07:41:35;;;;;;;3.80;2.60;;;;;;;3.92;66.39;100443.95;24513;1332;3051934;-64
2022/11/07 07:44:05;;;;;;;3.10;2.10;;;;;;;3.97;66.26;100438.67;24455;1326;3025691;-64
2022/11/07 07:46:34;;;;;;;3.30;2.30;;;;;;;4.00;65.98;100440.35;24457;1339;3051009;-61
2022/11/07 07:49:03;;;;;;;3.00;2.30;;;;;;;4.06;65.85;100440.25;24481;1333;3028583;-63
2022/11/07 07:51:32;;;;;;;3.30;2.20;;;;;;;4.08;65.77;100435.52;24458;1333;3054086;-62
2022/11/07 07:54:02;;;;;;;4.50;2.70;;;;;;;4.06;65.95;100432.61;24512;1334;3028146;-64
2022/11/07 07:56:32;;;;;;;3.90;2.60;;;;;;;4.11;65.86;100435.29;24438;1333;3026657;-64
2022/11/07 07:59:02;;;;;;;3.30;2.40;;;;;;;4.17;65.69;100434.14;24488;1326;3028748;-64
2022/11/07 08:01:31;;;;;;;4.40;3.10;;;;;;;4.21;65.57;100431.83;24429;1333;3051932;-65
2022/11/07 08:03:59;;;;;;;10.60;3.80;;;;;;;4.24;65.87;100424.83;24487;1335;3028709;-62
2022/11/07 08:06:29;;;;;;;7.90;3.70;;;;;;;4.27;65.05;100422.00;24458;1333;3053440;-63
2022/11/07 08:08:58;;;;;;;4.50;3.10;;;;;;;4.32;65.11;100424.48;24464;1333;3026984;-63
2022/11/07 08:11:27;;;;;;;5.20;3.60;;;;;;;4.32;64.93;100423.80;24437;1333;3029797;-62
2022/11/07 08:13:57;;;;;;;7.10;3.40;;;;;;;4.44;64.58;100421.15;24433;1334;3053799;-62
2022/11/07 08:16:26;;;;;;;5.30;3.60;;;;;;;4.56;64.28;100415.52;24482;1326;3028009;-63
2022/11/07 08:18:55;;;;;;;6.70;3.40;;;;;;;4.58;64.06;100411.14;24463;1339;3052703;-63
2022/11/07 08:21:25;;;;;;;5.90;3.40;;;;;;;4.61;63.65;100407.08;24470;1326;3030307;-63
2022/11/07 08:23:55;;;;;;;4.10;3.00;;;;;;;4.72;63.16;100404.27;24510;1333;3025427;-65
2022/11/07 08:26:24;;;;;;;4.40;3.20;;;;;;;4.73;63.13;100402.31;24503;1326;3051650;-64
2022/11/07 08:28:54;;;;;;;5.30;3.70;;;;;;;4.66;63.41;100400.73;24495;1333;3029095;-64
2022/11/07 08:31:22;;;;;;;5.40;3.30;;;;;;;4.77;63.36;100399.98;24444;1333;3028001;-64
2022/11/07 08:33:51;;;;;;;7.90;2.70;;;;;;;4.90;63.03;100397.26;24533;1326;3053085;-63
2022/11/07 08:36:20;;;;;;;4.20;2.60;;;;;;;4.97;62.92;100396.92;24439;1333;3026889;-64
2022/11/07 08:38:50;;;;;;;3.40;2.40;;;;;;;5.06;62.59;100394.48;24457;1334;3057648;-62
2022/11/07 08:41:19;;;;;;;4.50;3.10;;;;;;;5.15;62.55;100398.10;24451;1319;3028779;-61
2022/11/07 08:43:48;;;;;;;7.50;3.50;;;;;;;5.21;62.21;100400.55;24459;1333;3049430;-64
2022/11/07 08:46:17;;;;;;;10.80;3.70;;;;;;;5.28;62.12;100390.84;24471;1326;3028742;-63
2022/11/07 08:48:46;;;;;;;6.30;3.50;;;;;;;5.35;62.03;100393.09;24469;1335;3069408;-64
2022/11/07 08:51:15;;;;;;;7.50;3.30;;;;;;;5.30;61.87;100395.15;24536;1328;3027372;-64
2022/11/07 08:53:45;;;;;;;4.40;3.10;;;;;;;5.35;61.98;100391.88;24463;1330;3048993;-61
2022/11/07 08:56:13;;;;;;;6.00;3.20;;;;;;;5.36;61.91;100388.53;24522;1322;3029038;-63
2022/11/07 08:58:43;;;;;;;8.60;3.40;;;;;;;5.45;61.66;100383.29;24510;1324;3051947;-63
2022/11/07 09:01:12;;;;;;;8.30;4.60;;;;;;;5.53;61.37;100377.55;24475;1329;3029577;-61
2022/11/07 09:03:41;;;;;;;9.80;4.50;;;;;;;5.67;61.41;100372.84;24519;1329;3052600;-64
2022/11/07 09:06:10;;;;;;;9.30;4.00;;;;;;;5.87;60.68;100376.83;24486;1323;3027329;-63
2022/11/07 09:08:40;;;;;;;10.50;4.30;;;;;;;6.04;59.98;100376.56;24524;1330;3054237;-63
2022/11/07 09:11:09;;;;;;;8.80;4.00;;;;;;;6.22;59.90;100379.38;24490;1329;3027239;-64
2022/11/07 09:13:38;;;;;;;7.90;4.00;;;;;;;6.28;59.37;100377.82;24492;1330;3051738;-62
2022/11/07 09:16:07;;;;;;;6.00;3.70;;;;;;;6.13;59.54;100379.29;24524;1322;3029068;-62
2022/11/07 09:18:37;;;;;;;6.00;3.60;;;;;;;6.02;59.98;100378.20;24474;1329;3055561;-62
2022/11/07 09:21:06;;;;;;;5.80;3.80;;;;;;;5.94;60.26;100380.30;24525;1325;3029106;-63
2022/11/07 09:23:37;;;;;;;6.90;3.80;;;;;;;5.92;60.20;100369.91;24519;1330;3050130;-64
2022/11/07 09:26:06;;;;;;;6.60;3.80;;;;;;;6.09;59.93;100369.32;24512;1330;3028571;-63
2022/11/07 09:28:35;;;;;;;4.20;3.00;;;;;;;6.28;59.15;100365.83;24472;1330;3069720;-62
2022/11/07 09:31:04;;;;;;;3.80;2.90;;;;;;;6.29;59.18;100364.55;24547;1322;3027166;-63
2022/11/07 09:33:34;;;;;;;3.60;2.30;;;;;;;6.38;58.95;100362.21;24496;1322;3047717;-62
2022/11/07 09:36:04;;;;;;;4.80;2.60;;;;;;;6.41;58.59;100363.87;24521;1330;3029512;-63
2022/11/07 09:38:33;;;;;;;5.20;3.30;;;;;;;6.53;58.53;100364.06;24507;1322;3051798;-63
2022/11/07 09:41:09;;;;;;;8.90;3.80;;;;;;;6.57;58.48;100364.11;24520;1329;3028946;-65
2022/11/07 09:44:01;;;;;;;11.80;4.20;;;;;;;6.75;58.26;100364.80;24523;1329;3052685;-64
2022/11/07 09:47:04;;;;;;;7.60;3.90;;;;;;;6.76;58.23;100367.18;24513;1323;3054984;-63
2022/11/07 09:49:38;;;;;;;7.70;4.40;;;;;;;6.64;58.51;100363.89;24493;1330;3049691;-66
2022/11/07 09:52:14;;;;;;;12.40;4.90;;;;;;;6.76;58.40;100362.14;24479;1323;3069519;-65
2022/11/07 09:54:55;;;;;;;13.30;4.70;;;;;;;6.86;58.35;100356.63;24534;1330;3048585;-64
2022/11/07 09:57:26;;;;;;;12.80;4.20;;;;;;;6.92;58.17;100358.36;24478;1330;3056655;-64
2022/11/07 10:00:00;;;;;;;8.40;4.00;;;;;;;6.98;58.16;100356.27;24543;1322;3026244;-63
2022/11/07 10:02:31;;;;;;;4.50;3.20;;;;;;;7.05;57.82;100351.84;24577;1330;3053419;-66
2022/11/07 10:05:01;;;;;;;6.00;3.90;;;;;;;7.20;57.21;100352.92;24523;1338;3027635;-64
2022/11/07 10:07:47;;;;;;;6.30;4.10;;;;;;;7.42;56.69;100346.13;24574;1327;3029401;-64
2022/11/07 10:10:18;;;;;;;7.20;3.90;;;;;;;7.65;56.27;100341.84;24515;1330;3049340;-63
2022/11/07 10:12:58;;;;;;;9.90;4.20;;;;;;;7.60;56.17;100340.77;24520;1323;3027619;-64
2022/11/07 10:16:05;;;;;;;9.00;4.10;;;;;;;7.49;56.54;100338.90;24561;1330;3051414;-64
2022/11/07 10:18:51;;;;;;;10.00;4.10;;;;;;;7.54;56.72;100337.69;24503;1330;3058576;-65
2022/11/07 10:21:23;;;;;;;13.50;4.20;;;;;;;7.72;56.34;100334.96;24504;1330;3051781;-65
2022/11/07 10:24:01;;;;;;;13.70;4.00;;;;;;;7.86;55.75;100335.73;24580;1330;3027421;-65
2022/11/07 10:26:30;;;;;;;13.30;4.10;;;;;;;7.87;55.33;100332.52;24456;1330;3051442;-62
2022/11/07 10:29:00;;;;;;;9.80;3.80;;;;;;;7.98;55.38;100329.89;24544;1321;3028518;-63
2022/11/07 10:31:38;;;;;;;7.60;3.90;;;;;;;8.18;54.84;100328.10;24535;1331;3054444;-64
2022/11/07 10:34:47;;;;;;;8.50;3.80;;;;;;;7.89;55.01;100322.33;24543;1329;3052333;-62
2022/11/07 10:37:15;;;;;;;12.10;4.20;;;;;;;7.77;55.71;100320.84;24421;1336;3054594;-65
2022/11/07 10:39:46;;;;;;;9.50;3.80;;;;;;;7.91;55.57;100320.20;24430;1329;3028353;-65
2022/11/07 10:42:20;;;;;;;9.30;3.80;;;;;;;8.00;55.02;100318.98;24436;1323;3028715;-62
2022/11/07 10:44:49;;;;;;;6.80;3.90;;;;;;;8.12;55.20;100313.86;24518;1328;3052580;-64
2022/11/07 10:47:23;;;;;;;10.10;3.90;;;;;;;8.17;54.77;100307.89;24539;1319;3028316;-64
2022/11/07 10:49:57;;;;;;;5.50;3.60;;;;;;;8.13;54.74;100304.23;24490;1329;3052930;-64
2022/11/07 10:52:27;;;;;;;9.30;4.20;;;;;;;8.27;54.54;100308.58;24536;1322;3053563;-63
2022/11/07 10:55:06;;;;;;;11.00;4.10;;;;;;;8.28;54.19;100306.78;24556;1330;3027776;-63
2022/11/07 10:57:36;;;;;;;7.50;3.20;;;;;;;8.27;54.23;100301.09;24543;1329;3070122;-64
2022/11/07 11:00:20;;;;;;;6.50;3.30;;;;;;;8.30;54.35;100294.88;24520;1330;3029506;-63
2022/11/07 11:02:49;;;;;;;;;;;;;;;8.41;54.23;100295.64;24539;1332;3057733;-64
2022/11/07 11:05:21;;;;;;;5.70;3.30;;;;;;;8.46;53.59;100295.52;24499;1330;3027058;-63
2022/11/07 11:07:50;;;;;;;8.20;3.90;;;;;;;8.45;53.63;100293.42;24525;1336;3049666;-63
2022/11/07 11:10:27;;;;;;;8.10;3.90;;;;;;;8.44;53.87;100289.09;24484;1325;3028166;-63
2022/11/07 11:12:57;;;;;;;7.40;3.50;;;;;;;8.61;53.66;100287.58;24503;1339;3050881;-63
2022/11/07 11:15:28;;;;;;;6.10;3.70;;;;;;;8.62;53.46;100288.23;24469;1339;3026926;-64
2022/11/07 11:18:02;;;;;;;7.60;3.60;;;;;;;8.55;53.64;100285.02;24478;1330;3029606;-63
2022/11/07 11:20:55;;;;;;;8.50;3.80;;;;;;;8.61;53.58;100281.64;24539;1332;3027422;-64
2022/11/07 11:23:25;;;;;;;7.70;4.30;;;;;;;8.63;53.42;100286.78;24543;1330;3049802;-64
2022/11/07 11:26:00;;;;;;;4.30;3.20;;;;;;;8.62;53.74;100283.35;24483;1329;3025836;-62
2022/11/07 11:28:32;;;;;;;8.30;3.30;;;;;;;8.69;53.29;100282.35;24513;1330;3049689;-64
2022/11/07 11:31:04;;;;;;;7.90;3.90;;;;;;;8.73;53.39;100277.84;24509;1323;3026869;-63
2022/11/07 11:33:41;;;;;;;5.70;3.60;;;;;;;8.75;53.65;100278.84;24496;1323;3028247;-63
2022/11/07 11:36:18;;;;;;;8.00;3.70;;;;;;;8.86;53.29;100279.79;24485;1339;3053077;-64
2022/11/07 11:38:53;;;;;;;5.00;3.10;;;;;;;8.94;52.99;100278.59;24496;1328;3051359;-64
2022/11/07 11:41:27;;;;;;;4.60;3.40;;;;;;;8.85;53.40;100267.40;24528;1328;3052904;-62
2022/11/07 11:44:04;;;;;;;7.30;3.30;;;;;;;8.84;53.24;100267.09;24525;1339;3050928;-63
2022/11/07 11:46:41;;;;;;;7.60;3.70;;;;;;;8.86;53.47;100268.40;24523;1330;3069754;-63
2022/11/07 11:49:31;;;;;;;7.40;4.00;;;;;;;8.89;53.42;100268.14;24533;1339;3049506;-62
2022/11/07 11:52:02;;;;;;;7.00;3.60;;;;;;;8.93;53.53;100261.85;24557;1330;3057526;-64